createdAt,value
2022-12-23T00:01:09.967Z,5.60
2022-12-23T00:03:39.578Z,5.60
2022-12-23T00:06:12.769Z,5.70
2022-12-23T00:08:41.678Z,5.70
2022-12-23T00:11:14.423Z,5.80
2022-12-23T00:14:00.244Z,5.80
2022-12-23T00:16:28.896Z,5.80
2022-12-23T00:18:57.754Z,5.80
2022-12-23T00:21:27.787Z,5.90
2022-12-23T00:23:56.381Z,5.90
2022-12-23T00:26:27.334Z,6.00
2022-12-23T00:28:57.968Z,6.00
2022-12-23T00:31:27.094Z,6.00
2022-12-23T00:33:55.813Z,6.00
2022-12-23T00:36:28.437Z,6.00
2022-12-23T00:39:14.816Z,6.00
2022-12-23T00:42:00.697Z,6.00
2022-12-23T00:44:29.384Z,6.10
2022-12-23T00:46:57.931Z,6.10
2022-12-23T00:49:43.875Z,6.10
2022-12-23T00:52:16.724Z,6.10
2022-12-23T00:54:45.408Z,6.10
2022-12-23T00:57:13.947Z,6.10
2022-12-23T00:59:42.620Z,6.10
2022-12-23T01:02:30.051Z,6.10
2022-12-23T01:05:16.373Z,6.20
2022-12-23T01:07:46.365Z,6.20
2022-12-23T01:10:14.910Z,6.20
2022-12-23T01:12:43.608Z,6.20
2022-12-23T01:15:12.748Z,6.20
2022-12-23T01:17:41.322Z,6.50
2022-12-23T01:20:10.844Z,6.20
2022-12-23T01:22:39.427Z,6.20
2022-12-23T01:25:10.951Z,6.20
2022-12-23T01:27:39.518Z,6.20
2022-12-23T01:30:09.313Z,6.20
2022-12-23T01:32:38.019Z,6.20
2022-12-23T01:35:07.282Z,6.20
2022-12-23T01:37:35.958Z,6.20
2022-12-23T01:40:05.089Z,6.20
2022-12-23T01:42:47.891Z,6.20
2022-12-23T01:45:18.195Z,6.20
2022-12-23T01:47:51.703Z,6.20
2022-12-23T01:50:25.102Z,6.20
2022-12-23T01:53:04.823Z,6.20
2022-12-23T01:55:40.181Z,6.20
2022-12-23T01:58:13.872Z,6.20
2022-12-23T02:01:01.344Z,6.20
2022-12-23T02:03:45.509Z,6.20
2022-12-23T02:06:37.981Z,6.20
2022-12-23T02:09:19.127Z,6.30
2022-12-23T02:12:30.316Z,6.20
2022-12-23T02:15:31.266Z,6.30
2022-12-23T02:18:12.290Z,6.30
2022-12-23T02:21:29.199Z,6.30
2022-12-23T02:24:49.339Z,6.30
2022-12-23T02:27:24.839Z,6.30
2022-12-23T02:33:21.035Z,6.30
2022-12-23T02:35:59.747Z,6.30
2022-12-23T02:38:33.740Z,6.30
2022-12-23T02:41:10.436Z,6.30
2022-12-23T02:43:45.854Z,6.30
2022-12-23T02:46:19.666Z,6.40
2022-12-23T02:48:55.185Z,6.40
2022-12-23T02:51:29.202Z,6.40
2022-12-23T02:54:02.055Z,6.40
2022-12-23T02:56:34.567Z,6.40
2022-12-23T02:59:06.843Z,6.40
2022-12-23T03:01:36.765Z,6.40
2022-12-23T03:04:07.153Z,6.40
2022-12-23T03:06:40.042Z,6.40
2022-12-23T03:09:09.684Z,6.40
2022-12-23T03:11:47.006Z,6.40
2022-12-23T03:14:32.416Z,6.40
2022-12-23T03:17:11.593Z,6.40
2022-12-23T03:19:50.843Z,6.40
2022-12-23T03:22:25.525Z,6.40
2022-12-23T03:25:02.538Z,6.40
2022-12-23T03:27:38.401Z,6.50
2022-12-23T03:30:09.549Z,6.50
2022-12-23T03:32:42.575Z,6.50
2022-12-23T03:35:17.536Z,6.50
2022-12-23T03:37:49.789Z,6.50
2022-12-23T03:40:21.469Z,6.50
2022-12-23T03:42:54.640Z,6.50
2022-12-23T03:45:38.793Z,6.50
2022-12-23T03:48:13.219Z,6.50
2022-12-23T03:50:44.658Z,6.50
2022-12-23T03:53:17.936Z,6.50
2022-12-23T03:55:51.139Z,6.50
2022-12-23T03:58:34.727Z,6.50
2022-12-23T04:01:18.483Z,6.50
2022-12-23T04:03:53.165Z,6.50
2022-12-23T04:06:25.553Z,6.50
2022-12-23T04:08:55.324Z,6.50
2022-12-23T04:11:24.104Z,6.50
2022-12-23T04:13:52.593Z,6.60
2022-12-23T04:16:21.302Z,6.50
2022-12-23T04:18:49.831Z,6.50
2022-12-23T04:21:18.415Z,6.50
2022-12-23T04:23:48.347Z,6.50
2022-12-23T04:26:17.066Z,6.50
2022-12-23T04:28:45.628Z,6.40
2022-12-23T04:31:14.251Z,6.30
2022-12-23T04:33:42.864Z,6.20
2022-12-23T04:36:11.502Z,6.10
2022-12-23T04:38:40.063Z,6.00
2022-12-23T04:41:10.179Z,6.00
2022-12-23T04:43:38.674Z,5.90
2022-12-23T04:46:07.237Z,5.90
2022-12-23T04:48:36.904Z,5.90
2022-12-23T04:51:06.681Z,5.90
2022-12-23T04:53:37.597Z,5.90
2022-12-23T04:56:06.540Z,5.90
2022-12-23T04:58:36.599Z,5.90
2022-12-23T05:01:06.785Z,5.80
2022-12-23T05:03:35.524Z,5.80
2022-12-23T05:06:04.726Z,5.70
2022-12-23T05:08:33.356Z,5.70
2022-12-23T05:11:01.954Z,5.60
2022-12-23T05:13:30.715Z,5.60
2022-12-23T05:16:00.758Z,5.50
2022-12-23T05:18:29.370Z,5.40
2022-12-23T05:20:57.938Z,5.30
2022-12-23T05:23:26.529Z,5.30
2022-12-23T05:25:56.011Z,5.40
2022-12-23T05:28:24.994Z,5.40
2022-12-23T05:31:01.535Z,5.40
2022-12-23T05:33:30.476Z,5.50
2022-12-23T05:35:59.270Z,5.50
2022-12-23T05:38:28.736Z,5.50
2022-12-23T05:40:57.333Z,5.60
2022-12-23T05:43:26.066Z,5.60
2022-12-23T05:45:54.686Z,5.60
2022-12-23T05:48:25.140Z,5.70
2022-12-23T05:50:54.631Z,5.60
2022-12-23T05:53:24.758Z,5.60
2022-12-23T05:55:53.332Z,5.60
2022-12-23T05:58:21.851Z,5.60
2022-12-23T06:00:50.595Z,5.60
2022-12-23T06:03:19.264Z,5.70
2022-12-23T06:05:53.221Z,5.70
2022-12-23T06:08:22.105Z,5.80
2022-12-23T06:10:50.749Z,5.80
2022-12-23T06:13:19.336Z,5.80
2022-12-23T06:15:48.672Z,5.70
2022-12-23T06:18:17.218Z,5.70
2022-12-23T06:20:48.226Z,5.70
2022-12-23T06:23:18.264Z,5.80
2022-12-23T06:25:46.847Z,5.80
2022-12-23T06:28:15.460Z,5.80
2022-12-23T06:30:44.040Z,5.70
2022-12-23T06:33:12.618Z,5.80
2022-12-23T06:35:41.168Z,5.70
2022-12-23T06:38:12.225Z,5.70
2022-12-23T06:40:42.549Z,5.70
2022-12-23T06:43:13.544Z,5.80
2022-12-23T06:45:42.801Z,5.80
2022-12-23T06:48:11.380Z,5.80
2022-12-23T06:50:40.013Z,5.90
2022-12-23T06:53:08.642Z,5.90
2022-12-23T06:55:39.521Z,5.80
2022-12-23T06:58:10.005Z,5.90
2022-12-23T07:00:38.635Z,5.80
2022-12-23T07:03:08.096Z,5.90
2022-12-23T07:05:37.908Z,5.90
2022-12-23T07:08:07.217Z,5.90
2022-12-23T07:10:36.143Z,5.90
2022-12-23T07:13:04.750Z,6.00
2022-12-23T07:15:34.811Z,6.00
2022-12-23T07:18:03.394Z,6.00
2022-12-23T07:20:32.240Z,6.10
2022-12-23T07:23:01.141Z,6.10
2022-12-23T07:25:29.931Z,6.10
2022-12-23T07:27:58.636Z,6.20
2022-12-23T07:30:27.422Z,6.20
2022-12-23T07:32:57.628Z,6.30
2022-12-23T07:35:26.227Z,6.20
2022-12-23T07:37:55.782Z,6.20
2022-12-23T07:40:24.557Z,6.30
2022-12-23T07:42:56.826Z,6.20
2022-12-23T07:45:26.620Z,6.30
2022-12-23T07:47:57.172Z,6.40
2022-12-23T07:50:26.757Z,6.40
2022-12-23T07:52:55.983Z,6.40
2022-12-23T07:55:24.772Z,6.30
2022-12-23T07:57:54.296Z,6.30
2022-12-23T08:00:23.573Z,6.30
2022-12-23T08:02:52.266Z,6.30
2022-12-23T08:05:22.623Z,6.20
2022-12-23T08:07:51.271Z,6.10
2022-12-23T08:10:20.129Z,6.10
2022-12-23T08:12:51.224Z,6.10
2022-12-23T08:15:20.030Z,6.10
2022-12-23T08:17:48.981Z,6.10
2022-12-23T08:20:17.982Z,6.20
2022-12-23T08:22:48.181Z,6.30
2022-12-23T08:25:17.030Z,6.30
2022-12-23T08:27:45.941Z,6.40
2022-12-23T08:30:15.296Z,6.50
2022-12-23T08:32:43.990Z,6.50
2022-12-23T08:35:12.843Z,6.60
2022-12-23T08:37:41.484Z,6.70
2022-12-23T08:40:12.800Z,6.70
2022-12-23T08:42:41.497Z,6.80
2022-12-23T08:45:11.126Z,6.80
2022-12-23T08:47:39.752Z,6.80
2022-12-23T08:50:09.434Z,6.80
2022-12-23T08:52:38.385Z,6.80
2022-12-23T08:55:07.448Z,6.80
2022-12-23T08:57:37.567Z,6.80
2022-12-23T09:00:07.010Z,6.80
2022-12-23T09:02:35.944Z,6.80
2022-12-23T09:05:05.052Z,6.90
2022-12-23T09:07:33.698Z,6.90
2022-12-23T09:10:02.597Z,6.80
2022-12-23T09:12:31.534Z,6.90
2022-12-23T09:15:03.102Z,6.90
2022-12-23T09:17:31.717Z,7.10
2022-12-23T09:20:00.436Z,7.00
2022-12-23T09:22:29.195Z,7.10
2022-12-23T09:25:04.606Z,7.10
2022-12-23T09:27:33.831Z,7.20
2022-12-23T09:30:03.867Z,7.30
2022-12-23T09:32:33.968Z,7.30
2022-12-23T09:35:02.762Z,7.30
2022-12-23T09:37:31.514Z,7.30
2022-12-23T09:40:00.151Z,7.40
2022-12-23T09:42:48.283Z,7.40
2022-12-23T09:45:40.672Z,7.30
2022-12-23T09:48:14.038Z,7.30
2022-12-23T09:50:43.567Z,7.30
2022-12-23T09:53:16.832Z,7.30
2022-12-23T09:55:50.654Z,7.20
2022-12-23T09:58:28.608Z,7.20
2022-12-23T10:01:12.425Z,7.30
2022-12-23T10:04:01.155Z,7.20
2022-12-23T10:06:38.914Z,7.10
2022-12-23T10:09:11.483Z,7.10
2022-12-23T10:11:44.280Z,7.10
2022-12-23T10:14:19.795Z,7.10
2022-12-23T10:16:53.457Z,7.10
2022-12-23T10:19:27.828Z,7.10
2022-12-23T10:22:02.930Z,7.10
2022-12-23T10:24:37.924Z,7.10
2022-12-23T10:27:13.446Z,7.10
2022-12-23T10:29:43.835Z,7.10
2022-12-23T10:32:23.881Z,7.10
2022-12-23T10:34:58.524Z,7.00
2022-12-23T10:37:36.076Z,7.00
2022-12-23T10:40:13.664Z,6.90
2022-12-23T10:42:47.767Z,6.90
2022-12-23T10:45:28.825Z,6.90
2022-12-23T10:48:13.909Z,6.80
2022-12-23T10:50:55.820Z,6.80
2022-12-23T10:53:36.683Z,6.80
2022-12-23T10:56:07.807Z,6.80
2022-12-23T10:58:42.119Z,6.80
2022-12-23T11:01:21.852Z,6.80
2022-12-23T11:04:03.822Z,6.70
2022-12-23T11:06:37.592Z,6.70
2022-12-23T11:09:07.983Z,6.60
2022-12-23T11:12:00.096Z,6.70
2022-12-23T11:14:34.598Z,6.70
2022-12-23T11:17:03.750Z,6.70
2022-12-23T11:19:42.327Z,6.70
2022-12-23T11:22:23.585Z,6.70
2022-12-23T11:24:52.607Z,6.70
2022-12-23T11:27:21.679Z,6.70
2022-12-23T11:29:52.992Z,6.70
2022-12-23T11:32:25.315Z,6.70
2022-12-23T11:34:57.332Z,6.80
2022-12-23T11:37:31.732Z,6.80
2022-12-23T11:40:00.527Z,6.90
2022-12-23T11:42:31.876Z,6.80
2022-12-23T11:45:01.795Z,6.80
2022-12-23T11:47:35.847Z,6.80
2022-12-23T11:50:28.835Z,6.80
2022-12-23T11:53:05.540Z,6.80
2022-12-23T11:55:34.415Z,6.80
2022-12-23T11:58:04.230Z,6.70
2022-12-23T12:00:40.398Z,6.60
2022-12-23T12:03:19.830Z,6.60
2022-12-23T12:05:53.033Z,6.50
2022-12-23T12:08:24.710Z,6.50
2022-12-23T12:10:55.193Z,6.50
2022-12-23T12:13:29.936Z,6.50
2022-12-23T12:16:14.209Z,6.50
2022-12-23T12:18:48.032Z,6.50
2022-12-23T12:21:25.168Z,6.50
2022-12-23T12:24:17.304Z,6.40
2022-12-23T12:26:47.307Z,6.40
2022-12-23T12:29:20.040Z,6.40
2022-12-23T12:31:51.813Z,6.50
2022-12-23T12:34:33.746Z,6.50
2022-12-23T12:37:09.189Z,6.40
2022-12-23T12:39:43.391Z,6.40
2022-12-23T12:42:16.595Z,6.40
2022-12-23T12:44:56.143Z,6.30
2022-12-23T12:47:53.355Z,6.30
2022-12-23T12:50:28.078Z,6.30
2022-12-23T12:53:02.428Z,6.20
2022-12-23T12:55:34.713Z,6.20
2022-12-23T12:58:04.033Z,6.20
2022-12-23T13:00:41.893Z,6.20
2022-12-23T13:03:31.824Z,6.20
2022-12-23T13:06:17.102Z,6.20
2022-12-23T13:09:01.145Z,6.20
2022-12-23T13:11:33.647Z,6.20
2022-12-23T13:14:14.051Z,6.20
2022-12-23T13:16:49.731Z,6.20
2022-12-23T13:19:27.588Z,6.20
2022-12-23T13:22:05.330Z,6.20
2022-12-23T13:24:44.041Z,6.20
2022-12-23T13:27:19.641Z,6.10
2022-12-23T13:29:58.979Z,6.20
2022-12-23T13:32:54.251Z,6.20
2022-12-23T13:35:38.508Z,6.20
2022-12-23T13:38:19.252Z,6.20
2022-12-23T13:41:00.601Z,6.10
2022-12-23T13:43:39.523Z,6.10
2022-12-23T13:46:14.726Z,6.10
2022-12-23T13:48:53.067Z,6.10
2022-12-23T13:51:31.275Z,6.00
2022-12-23T13:54:05.791Z,6.00
2022-12-23T13:56:43.672Z,5.90
2022-12-23T13:59:13.811Z,5.90
2022-12-23T14:01:47.974Z,6.00
2022-12-23T14:04:58.250Z,6.00
2022-12-23T14:07:39.700Z,5.90
2022-12-23T14:10:14.300Z,5.90
2022-12-23T14:12:44.954Z,5.90
2022-12-23T14:15:33.560Z,5.90
2022-12-23T14:18:15.887Z,6.00
2022-12-23T14:20:51.840Z,6.00
2022-12-23T14:23:38.145Z,6.00
2022-12-23T14:26:26.846Z,6.10
2022-12-23T14:29:32.631Z,6.00
2022-12-23T14:32:01.471Z,6.00
2022-12-23T14:34:33.434Z,6.00
2022-12-23T14:37:33.811Z,6.00
2022-12-23T14:40:50.628Z,6.00
2022-12-23T14:43:34.309Z,6.00
2022-12-23T14:46:06.697Z,6.00
2022-12-23T14:52:38.042Z,5.90
2022-12-23T14:55:46.201Z,6.00
2022-12-23T14:59:02.421Z,6.10
2022-12-23T15:01:38.350Z,6.10
2022-12-23T15:04:18.334Z,6.10
2022-12-23T15:06:49.521Z,6.10
2022-12-23T15:09:25.146Z,6.10
2022-12-23T15:11:54.956Z,6.20
2022-12-23T15:14:32.689Z,6.20
2022-12-23T15:17:28.477Z,6.20
2022-12-23T15:20:07.123Z,6.30
2022-12-23T15:22:35.775Z,6.30
2022-12-23T15:25:22.197Z,6.30
2022-12-23T15:28:00.871Z,6.30
2022-12-23T15:30:35.284Z,6.40
2022-12-23T15:33:35.162Z,6.40
2022-12-23T15:36:03.519Z,6.40
2022-12-23T15:38:39.083Z,6.50
2022-12-23T15:41:20.050Z,6.50
2022-12-23T15:43:51.749Z,6.60
2022-12-23T15:46:29.840Z,6.60
2022-12-23T15:49:04.502Z,6.60
2022-12-23T15:52:05.716Z,6.60
2022-12-23T15:54:32.389Z,6.60
2022-12-23T15:57:04.726Z,6.70
2022-12-23T15:59:38.289Z,6.70
2022-12-23T16:02:58.549Z,6.60
2022-12-23T16:05:12.847Z,6.70
2022-12-23T16:07:45.021Z,6.70
2022-12-23T16:10:21.066Z,6.70
2022-12-23T16:12:53.959Z,6.70
2022-12-23T16:15:30.867Z,6.70
2022-12-23T16:18:14.565Z,6.80
2022-12-23T16:20:49.117Z,6.80
2022-12-23T16:23:18.910Z,6.80
2022-12-23T16:25:50.859Z,6.80
2022-12-23T16:28:26.925Z,6.90
2022-12-23T16:31:00.815Z,6.90
2022-12-23T16:33:38.189Z,6.90
2022-12-23T16:36:21.417Z,6.90
2022-12-23T16:38:53.538Z,6.90
2022-12-23T16:41:27.539Z,6.90
2022-12-23T16:44:03.701Z,6.90
2022-12-23T16:46:44.055Z,7.00
2022-12-23T16:49:22.917Z,7.10
2022-12-23T16:52:00.415Z,7.10
2022-12-23T16:54:31.007Z,7.10
2022-12-23T16:57:06.471Z,7.10
2022-12-23T16:59:42.989Z,7.10
2022-12-23T17:02:25.398Z,7.10
2022-12-23T17:04:58.298Z,7.10
2022-12-23T17:07:38.697Z,7.20
2022-12-23T17:10:16.141Z,7.20
2022-12-23T17:12:52.220Z,7.20
2022-12-23T17:15:31.106Z,7.20
2022-12-23T17:18:07.620Z,7.30
2022-12-23T17:20:42.821Z,7.30
2022-12-23T17:23:31.819Z,7.30
2022-12-23T17:26:05.161Z,7.30
2022-12-23T17:28:43.436Z,7.30
2022-12-23T17:31:24.337Z,7.30
2022-12-23T17:34:01.868Z,7.30
2022-12-23T17:36:36.371Z,7.30
2022-12-23T17:39:08.913Z,7.30
2022-12-23T17:41:40.340Z,7.40
2022-12-23T17:44:16.064Z,7.30
2022-12-23T17:46:48.444Z,7.30
2022-12-23T17:49:21.872Z,7.30
2022-12-23T17:51:52.085Z,7.30
2022-12-23T17:54:26.265Z,7.30
2022-12-23T17:56:55.223Z,7.30
2022-12-23T17:59:25.583Z,7.30
2022-12-23T18:01:56.815Z,7.30
2022-12-23T18:04:28.843Z,7.40
2022-12-23T18:06:59.450Z,7.50
2022-12-23T18:09:29.948Z,7.40
2022-12-23T18:12:02.575Z,7.40
2022-12-23T18:14:32.790Z,7.40
2022-12-23T18:17:02.326Z,7.40
2022-12-23T18:19:32.756Z,7.40
2022-12-23T18:22:01.496Z,7.40
2022-12-23T18:24:33.806Z,7.40
2022-12-23T18:27:04.148Z,7.40
2022-12-23T18:29:34.889Z,7.30
2022-12-23T18:32:05.186Z,7.30
2022-12-23T18:34:34.916Z,7.30
2022-12-23T18:37:04.647Z,7.30
2022-12-23T18:39:36.920Z,7.30
2022-12-23T18:42:11.917Z,7.20
2022-12-23T18:44:42.975Z,7.20
2022-12-23T18:47:13.133Z,7.20
2022-12-23T18:49:42.723Z,7.10
2022-12-23T18:52:15.092Z,7.10
2022-12-23T18:54:48.554Z,7.10
2022-12-23T18:57:17.214Z,7.10
2022-12-23T18:59:47.971Z,7.10
2022-12-23T19:02:16.721Z,7.00
2022-12-23T19:04:48.429Z,7.00
2022-12-23T19:07:17.301Z,7.00
2022-12-23T19:09:48.009Z,6.90
2022-12-23T19:12:17.373Z,6.90
2022-12-23T19:14:46.109Z,6.80
2022-12-23T19:17:16.307Z,6.80
2022-12-23T19:19:46.850Z,6.70
2022-12-23T19:22:16.141Z,6.70
2022-12-23T19:25:04.734Z,6.70
2022-12-23T19:27:35.060Z,6.70
2022-12-23T19:30:04.185Z,6.60
2022-12-23T19:32:34.602Z,6.60
2022-12-23T19:35:03.280Z,6.60
2022-12-23T19:37:33.267Z,6.60
2022-12-23T19:40:03.871Z,6.50
2022-12-23T19:42:34.096Z,6.50
2022-12-23T19:45:03.912Z,6.50
2022-12-23T19:47:32.601Z,6.40
2022-12-23T19:50:01.891Z,6.40
2022-12-23T19:52:30.513Z,6.40
2022-12-23T19:54:59.351Z,6.40
2022-12-23T19:57:29.496Z,6.30
2022-12-23T19:59:58.202Z,6.40
2022-12-23T20:02:33.595Z,6.40
2022-12-23T20:05:02.381Z,6.40
2022-12-23T20:07:31.103Z,6.30
2022-12-23T20:09:59.892Z,6.30
2022-12-23T20:12:34.773Z,6.30
2022-12-23T20:15:05.209Z,6.30
2022-12-23T20:17:33.985Z,6.30
2022-12-23T20:20:02.955Z,6.30
2022-12-23T20:22:31.734Z,6.30
2022-12-23T20:25:00.276Z,6.30
2022-12-23T20:27:32.491Z,6.20
2022-12-23T20:30:01.224Z,6.20
2022-12-23T20:32:29.962Z,6.20
2022-12-23T20:34:58.839Z,6.10
2022-12-23T20:37:27.571Z,6.10
2022-12-23T20:39:59.184Z,6.10
2022-12-23T20:42:28.192Z,6.00
2022-12-23T20:44:58.295Z,6.00
2022-12-23T20:47:30.067Z,6.00
2022-12-23T20:50:01.554Z,6.00
2022-12-23T20:52:30.722Z,6.10
2022-12-23T20:55:01.826Z,6.10
2022-12-23T20:57:32.041Z,6.10
2022-12-23T21:00:02.768Z,6.10
2022-12-23T21:07:30.801Z,6.10
2022-12-23T21:10:09.896Z,6.10
2022-12-23T21:12:47.553Z,6.10
2022-12-23T21:15:46.610Z,6.20
2022-12-23T21:18:49.266Z,6.10
2022-12-23T21:21:18.667Z,6.10
2022-12-23T21:23:47.727Z,6.00
2022-12-23T21:26:18.418Z,6.00
2022-12-23T21:28:49.193Z,6.10
2022-12-23T21:31:20.948Z,6.10
2022-12-23T21:33:51.344Z,6.10
2022-12-23T21:36:25.600Z,6.00
2022-12-23T21:38:55.409Z,6.00
2022-12-23T21:41:27.752Z,6.00
2022-12-23T21:43:58.141Z,6.10
2022-12-23T21:46:30.195Z,6.10
2022-12-23T21:49:02.628Z,6.10
2022-12-23T21:51:45.418Z,6.10
2022-12-23T21:54:14.770Z,6.10
2022-12-23T21:56:54.129Z,6.00
2022-12-23T21:59:23.484Z,6.10
2022-12-23T22:01:54.545Z,6.00
2022-12-23T22:04:26.519Z,6.00
2022-12-23T22:06:58.902Z,6.00
2022-12-23T22:09:29.314Z,6.00
2022-12-23T22:12:04.353Z,6.00
2022-12-23T22:14:33.381Z,6.00
2022-12-23T22:17:06.099Z,6.00
2022-12-23T22:19:34.885Z,5.90
2022-12-23T22:22:07.848Z,5.90
2022-12-23T22:24:46.231Z,5.90
2022-12-23T22:27:18.676Z,5.90
2022-12-23T22:29:50.901Z,5.90
2022-12-23T22:32:25.034Z,5.90
2022-12-23T22:34:54.290Z,5.90
2022-12-23T22:37:22.925Z,5.90
2022-12-23T22:40:17.646Z,5.90
2022-12-23T22:43:20.247Z,5.80
2022-12-23T22:46:08.457Z,5.70
2022-12-23T22:48:45.638Z,5.80
2022-12-23T22:51:20.311Z,5.90
2022-12-23T22:54:26.491Z,5.80
2022-12-23T22:57:06.902Z,5.90
2022-12-23T22:59:38.868Z,5.80
2022-12-23T23:02:49.448Z,5.80
2022-12-23T23:05:28.755Z,5.80
2022-12-23T23:07:58.140Z,5.80
2022-12-23T23:10:37.517Z,5.70
2022-12-23T23:13:23.597Z,5.70
2022-12-23T23:16:02.923Z,5.70
2022-12-23T23:18:42.698Z,5.70
2022-12-23T23:21:19.718Z,5.70
2022-12-23T23:26:35.581Z,5.70
2022-12-23T23:29:04.835Z,5.70
2022-12-23T23:31:54.054Z,5.70
2022-12-23T23:34:23.312Z,5.70
2022-12-23T23:36:53.840Z,5.70
2022-12-23T23:39:23.515Z,5.80
2022-12-23T23:42:28.889Z,5.70
2022-12-23T23:45:07.914Z,5.80
2022-12-23T23:47:45.530Z,5.40
2022-12-23T23:50:22.223Z,5.60
2022-12-23T23:53:01.551Z,5.60
2022-12-23T23:55:36.091Z,5.70
2022-12-23T23:58:09.940Z,5.50
